Time;durP1;ratioP1;P1;durP2;ratioP2;P2;SDS_P1;SDS_P2;PMS_P1;PMS_P2;Temp;Humidity;BMP_temperature;BMP_pressure;BME280_temperature;BME280_humidity;BME280_pressure;Samples;Min_cycle;Max_cycle;Signal;HPM_P1;HPM_P2
2022/08/16 00:02:20;;;;;;;4.93;3.60;;;25.80;1.00;;;;;;5111780;28;20396;-52
2022/08/16 00:04:46;;;;;;;4.35;3.95;;;25.80;1.00;;;;;;5111984;28;20020;-53
2022/08/16 00:07:12;;;;;;;4.30;3.80;;;25.80;1.00;;;;;;5110002;28;20031;-54
2022/08/16 00:09:37;;;;;;;3.30;3.10;;;25.80;1.00;;;;;;5112140;28;20058;-52
2022/08/16 00:12:03;;;;;;;3.75;3.28;;;25.80;1.00;;;;;;5111390;28;20024;-53
2022/08/16 00:14:31;;;;;;;5.20;3.47;;;25.80;1.00;;;;;;5112102;28;20221;-55
2022/08/16 00:16:58;;;;;;;3.97;3.67;;;25.80;1.00;;;;;;5092804;28;20377;-53
2022/08/16 00:19:32;;;;;;;4.28;3.42;;;25.80;1.00;;;;;;5111905;28;20024;-52
2022/08/16 00:21:58;;;;;;;4.15;3.47;;;25.80;1.00;;;;;;5109434;28;20031;-56
2022/08/16 00:24:26;;;;;;;4.28;3.88;;;25.80;1.00;;;;;;5108817;28;20437;-54
2022/08/16 00:26:53;;;;;;;3.63;3.30;;;25.80;1.00;;;;;;5111162;28;21049;-55
2022/08/16 00:29:19;;;;;;;4.22;3.25;;;25.80;1.00;;;;;;5111643;28;20039;-55
2022/08/16 00:31:48;;;;;;;3.78;3.35;;;25.80;1.00;;;;;;5111368;28;20354;-55
2022/08/16 00:34:14;;;;;;;3.60;2.63;;;25.70;1.00;;;;;;5111205;28;20489;-54
2022/08/16 00:36:40;;;;;;;3.53;3.20;;;25.70;1.00;;;;;;5093661;28;20024;-54
2022/08/16 00:39:06;;;;;;;6.55;3.85;;;25.80;1.00;;;;;;5110917;28;20066;-54
2022/08/16 00:41:33;;;;;;;8.55;4.47;;;25.70;1.00;;;;;;5112097;28;20049;-53
2022/08/16 00:44:02;;;;;;;5.22;3.30;;;25.70;1.00;;;;;;5111210;28;20104;-54
2022/08/16 00:46:43;;;;;;;5.00;3.60;;;25.70;1.00;;;;;;5111589;28;20044;-53
2022/08/16 00:49:11;;;;;;;4.18;3.70;;;25.70;1.00;;;;;;5111009;28;20140;-54
2022/08/16 00:51:37;;;;;;;3.55;3.25;;;25.60;1.00;;;;;;5111709;28;20030;-55
2022/08/16 00:54:03;;;;;;;3.75;3.45;;;25.70;1.00;;;;;;5111073;28;20034;-56
2022/08/16 00:56:31;;;;;;;4.82;3.67;;;25.60;1.00;;;;;;5111041;28;20044;-55
2022/08/16 00:58:57;;;;;;;3.67;3.38;;;25.70;1.00;;;;;;5111250;28;20039;-55
2022/08/16 01:01:23;;;;;;;3.55;3.25;;;25.70;1.00;;;;;;5115626;28;20023;-55
2022/08/16 01:03:51;;;;;;;4.15;3.60;;;25.60;1.00;;;;;;5114785;28;20034;-56
2022/08/16 01:06:19;;;;;;;4.90;4.00;;;25.60;1.00;;;;;;5115463;28;20059;-54
2022/08/16 01:08:49;;;;;;;4.05;3.60;;;25.60;1.00;;;;;;5112885;28;20380;-54
2022/08/16 01:11:15;;;;;;;3.75;3.45;;;25.60;1.00;;;;;;5112024;28;20035;-53
2022/08/16 01:13:42;;;;;;;3.58;3.28;;;25.60;1.00;;;;;;5114811;28;20186;-52
2022/08/16 01:16:14;;;;;;;6.10;3.70;;;25.60;1.00;;;;;;5103234;28;20389;-56
2022/08/16 01:18:45;;;;;;;3.55;3.25;;;25.60;1.00;;;;;;5105493;28;20119;-55
2022/08/16 01:21:23;;;;;;;4.18;3.45;;;25.50;1.00;;;;;;5113277;28;20024;-56
2022/08/16 01:24:14;;;;;;;4.20;3.75;;;25.50;1.00;;;;;;5113761;28;20020;-56
2022/08/16 01:26:41;;;;;;;5.07;3.33;;;25.50;1.00;;;;;;5114975;28;20031;-55
2022/08/16 01:29:11;;;;;;;4.00;3.60;;;25.50;1.00;;;;;;5113413;28;20126;-56
2022/08/16 01:31:36;;;;;;;4.30;3.72;;;25.50;1.00;;;;;;5114122;28;20019;-55
2022/08/16 01:34:03;;;;;;;3.55;3.25;;;25.50;1.00;;;;;;5113398;28;20027;-55
2022/08/16 01:36:29;;;;;;;4.13;3.63;;;25.40;1.00;;;;;;5113329;28;20023;-51
2022/08/16 01:38:54;;;;;;;3.47;3.20;;;25.50;1.00;;;;;;5113505;28;20051;-56
2022/08/16 01:41:28;;;;;;;4.53;4.10;;;25.50;1.00;;;;;;5114000;28;20108;-56
2022/08/16 01:43:54;;;;;;;3.65;3.35;;;25.50;1.00;;;;;;5113324;28;20047;-54
2022/08/16 01:46:28;;;;;;;4.10;3.75;;;25.40;1.00;;;;;;5113979;28;20030;-54
2022/08/16 01:49:02;;;;;;;3.97;3.20;;;25.40;1.00;;;;;;5112895;28;20473;-53
2022/08/16 01:51:29;;;;;;;3.90;3.60;;;25.50;1.00;;;;;;5112876;28;20031;-54
2022/08/16 01:53:55;;;;;;;4.25;3.80;;;25.50;1.00;;;;;;5112761;28;20019;-51
2022/08/16 01:56:22;;;;;;;3.97;3.58;;;25.50;1.00;;;;;;5113780;28;20542;-52
2022/08/16 01:58:48;;;;;;;4.15;3.85;;;25.40;1.00;;;;;;5112219;28;20109;-54
2022/08/16 02:01:13;;;;;;;3.80;3.45;;;25.40;1.00;;;;;;5113749;28;20408;-52
2022/08/16 02:03:39;;;;;;;3.78;3.47;;;25.50;1.00;;;;;;5112358;28;20080;-55
2022/08/16 02:06:06;;;;;;;5.03;3.38;;;25.40;1.00;;;;;;5112148;28;20043;-55
2022/08/16 02:08:32;;;;;;;6.55;3.85;;;25.50;1.00;;;;;;5110373;28;20027;-53
2022/08/16 02:10:58;;;;;;;4.60;4.10;;;25.50;1.00;;;;;;5109727;28;20085;-56
2022/08/16 02:13:24;;;;;;;6.43;4.13;;;25.50;1.00;;;;;;5112134;28;20028;-54
2022/08/16 02:15:50;;;;;;;4.40;3.95;;;25.50;1.00;;;;;;5113180;28;20134;-55
2022/08/16 02:18:16;;;;;;;4.00;3.70;;;25.50;1.00;;;;;;5094160;28;20032;-53
2022/08/16 02:20:48;;;;;;;4.95;4.10;;;25.40;1.00;;;;;;5113049;28;20061;-55
2022/08/16 02:23:13;;;;;;;4.32;3.97;;;25.50;1.00;;;;;;5112686;28;20447;-55
2022/08/16 02:25:39;;;;;;;4.30;3.85;;;25.40;1.00;;;;;;5111684;28;20024;-53
2022/08/16 02:28:04;;;;;;;5.30;4.80;;;25.40;1.00;;;;;;5108889;28;20040;-54
2022/08/16 02:30:31;;;;;;;5.00;4.32;;;25.40;1.00;;;;;;5111451;28;20416;-51
2022/08/16 02:32:58;;;;;;;6.25;4.07;;;25.40;1.00;;;;;;5111356;28;20055;-54
2022/08/16 02:35:25;;;;;;;4.43;3.97;;;25.40;1.00;;;;;;5111331;28;20027;-54
2022/08/16 02:37:52;;;;;;;4.57;4.03;;;25.30;1.00;;;;;;5112847;28;20038;-56
2022/08/16 02:40:20;;;;;;;7.35;4.22;;;25.30;1.00;;;;;;5112091;28;20098;-55
2022/08/16 02:42:47;;;;;;;4.85;4.35;;;25.30;1.00;;;;;;5113077;28;20164;-54
2022/08/16 02:45:14;;;;;;;4.50;4.18;;;25.30;1.00;;;;;;5111968;28;20118;-52
2022/08/16 02:47:39;;;;;;;4.80;3.65;;;25.30;1.00;;;;;;5112638;28;20453;-53
2022/08/16 02:50:06;;;;;;;5.55;4.45;;;25.30;1.00;;;;;;5104357;28;20028;-53
2022/08/16 02:52:32;;;;;;;4.55;3.80;;;25.20;1.00;;;;;;5112379;28;20012;-52
2022/08/16 02:54:58;;;;;;;3.83;3.53;;;25.20;1.00;;;;;;5111885;28;20060;-54
2022/08/16 02:57:24;;;;;;;4.20;3.90;;;25.20;1.00;;;;;;5112487;28;20016;-54
2022/08/16 02:59:50;;;;;;;4.68;3.67;;;25.20;1.00;;;;;;5111562;27;20027;-55
2022/08/16 03:02:16;;;;;;;4.45;4.05;;;25.20;1.00;;;;;;5111865;28;20102;-52
2022/08/16 03:04:42;;;;;;;4.60;4.30;;;25.10;1.00;;;;;;5100943;28;20468;-56
2022/08/16 03:07:07;;;;;;;5.97;4.43;;;25.10;1.00;;;;;;5093959;28;20034;-55
2022/08/16 03:09:34;;;;;;;4.25;3.92;;;25.00;1.00;;;;;;5111508;28;20077;-52
2022/08/16 03:12:01;;;;;;;4.47;4.10;;;25.10;1.00;;;;;;5111172;28;20027;-52
2022/08/16 03:14:27;;;;;;;5.00;4.53;;;25.10;1.00;;;;;;5092109;28;20461;-52
2022/08/16 03:16:53;;;;;;;4.85;4.45;;;25.10;1.00;;;;;;5112136;28;20026;-53
2022/08/16 03:19:19;;;;;;;5.90;4.35;;;25.10;1.00;;;;;;5110572;28;20022;-55
2022/08/16 03:21:45;;;;;;;4.35;3.95;;;25.00;1.00;;;;;;5111427;28;20051;-53
2022/08/16 03:24:11;;;;;;;4.90;4.55;;;25.10;1.00;;;;;;5111349;28;20048;-51
2022/08/16 03:26:37;;;;;;;4.75;4.28;;;25.00;1.00;;;;;;5111883;28;20028;-52
2022/08/16 03:29:03;;;;;;;5.35;4.85;;;25.00;1.00;;;;;;5111292;28;20035;-54
2022/08/16 03:31:29;;;;;;;5.15;4.70;;;25.00;1.00;;;;;;5111828;28;20019;-54
2022/08/16 03:33:55;;;;;;;5.10;4.53;;;25.00;1.00;;;;;;5111179;28;20032;-51
2022/08/16 03:36:21;;;;;;;5.10;4.22;;;25.00;1.00;;;;;;5111787;28;20527;-54
2022/08/16 03:38:46;;;;;;;6.80;4.57;;;24.90;1.00;;;;;;5110961;28;20556;-54
2022/08/16 03:41:12;;;;;;;4.35;4.05;;;24.80;1.00;;;;;;5111785;28;20377;-54
2022/08/16 03:43:38;;;;;;;5.05;4.65;;;24.80;1.00;;;;;;5111679;28;20346;-55
2022/08/16 03:46:03;;;;;;;4.65;4.32;;;24.80;1.00;;;;;;5111041;28;20390;-54
2022/08/16 03:48:32;;;;;;;5.82;5.00;;;24.90;1.00;;;;;;5111497;28;20106;-55
2022/08/16 03:51:02;;;;;;;5.05;4.60;;;24.80;1.00;;;;;;5110947;28;20027;-56
2022/08/16 03:53:29;;;;;;;5.00;4.45;;;24.70;1.00;;;;;;5111121;28;20019;-56
2022/08/16 03:55:56;;;;;;;5.50;4.90;;;24.60;1.00;;;;;;5110729;28;20027;-53
2022/08/16 03:58:21;;;;;;;6.53;4.65;;;24.70;1.00;;;;;;5111472;28;20066;-52
2022/08/16 04:00:48;;;;;;;5.20;4.63;;;24.70;1.00;;;;;;5111061;28;20059;-55
2022/08/16 04:03:14;;;;;;;5.72;4.57;;;24.70;1.00;;;;;;5111471;28;20024;-54
2022/08/16 04:05:44;;;;;;;4.90;4.47;;;24.60;1.00;;;;;;5110045;28;20081;-55
2022/08/16 04:08:12;;;;;;;8.43;5.15;;;24.60;1.00;;;;;;5111591;28;20074;-55
2022/08/16 04:10:38;;;;;;;5.60;4.95;;;24.50;1.00;;;;;;5102449;28;20439;-56
2022/08/16 04:13:04;;;;;;;6.00;4.38;;;24.50;1.00;;;;;;5112399;28;20073;-52
2022/08/16 04:15:29;;;;;;;5.03;4.55;;;24.60;1.00;;;;;;5110067;28;20085;-53
2022/08/16 04:17:56;;;;;;;5.45;4.50;;;24.50;1.00;;;;;;5083645;28;20031;-52
2022/08/16 04:20:24;;;;;;;6.15;4.32;;;24.50;1.00;;;;;;5111024;28;20115;-55
2022/08/16 04:22:50;;;;;;;5.05;4.65;;;24.50;1.00;;;;;;5112057;28;20449;-57
2022/08/16 04:25:16;;;;;;;5.25;4.85;;;24.60;1.00;;;;;;5108632;28;20038;-54
2022/08/16 04:27:42;;;;;;;5.13;4.72;;;24.50;1.00;;;;;;5107494;28;20126;-54
2022/08/16 04:30:13;;;;;;;5.60;5.15;;;24.40;1.00;;;;;;5110853;28;20134;-56
2022/08/16 04:32:40;;;;;;;5.85;5.28;;;24.40;1.00;;;;;;5111395;28;20040;-53
2022/08/16 04:35:08;;;;;;;5.30;4.80;;;24.50;1.00;;;;;;5114715;28;20026;-55
2022/08/16 04:37:33;;;;;;;4.35;3.95;;;24.50;1.00;;;;;;5112330;28;20039;-54
2022/08/16 04:39:59;;;;;;;6.13;5.53;;;24.50;1.00;;;;;;5105800;28;20058;-56
2022/08/16 04:42:25;;;;;;;5.13;4.68;;;24.60;1.00;;;;;;5100002;28;20449;-56
2022/08/16 04:44:50;;;;;;;6.43;5.05;;;24.60;1.00;;;;;;5108908;28;20051;-57
2022/08/16 04:47:16;;;;;;;4.90;4.50;;;24.60;1.00;;;;;;5114705;28;20080;-56
2022/08/16 04:49:42;;;;;;;8.02;5.18;;;24.60;1.00;;;;;;5115518;28;20046;-57
2022/08/16 04:52:07;;;;;;;7.22;4.97;;;24.70;1.00;;;;;;5115131;28;20024;-56
2022/08/16 04:54:33;;;;;;;5.75;5.10;;;24.70;1.00;;;;;;5115857;28;20072;-53
2022/08/16 04:56:58;;;;;;;10.75;5.28;;;24.60;1.00;;;;;;5114768;28;20037;-53
2022/08/16 04:59:24;;;;;;;4.88;4.28;;;24.70;1.00;;;;;;5112306;28;20026;-55
2022/08/16 05:01:55;;;;;;;6.28;5.13;;;24.70;1.00;;;;;;5114875;27;20076;-50
2022/08/16 05:04:22;;;;;;;5.50;5.07;;;24.70;1.00;;;;;;5115546;28;20020;-52
2022/08/16 05:06:48;;;;;;;5.53;4.70;;;24.70;1.00;;;;;;5114992;28;20059;-51
2022/08/16 05:09:14;;;;;;;6.63;5.32;;;24.70;1.00;;;;;;5114957;28;20100;-52
2022/08/16 05:11:39;;;;;;;5.20;4.80;;;24.60;1.00;;;;;;5114633;28;20521;-53
2022/08/16 05:14:05;;;;;;;6.20;5.65;;;24.70;1.00;;;;;;5114012;28;20028;-52
2022/08/16 05:16:31;;;;;;;5.80;5.30;;;24.70;1.00;;;;;;5110973;28;20381;-54
2022/08/16 05:18:59;;;;;;;8.63;6.22;;;24.60;1.00;;;;;;5114266;28;20099;-54
2022/08/16 05:21:27;;;;;;;7.13;6.43;;;24.60;1.00;;;;;;5114326;28;20028;-55
2022/08/16 05:23:53;;;;;;;6.22;5.63;;;24.50;1.00;;;;;;5115050;28;20477;-54
2022/08/16 05:26:19;;;;;;;6.28;5.72;;;24.60;1.00;;;;;;5114266;28;20503;-54
2022/08/16 05:28:45;;;;;;;9.05;6.13;;;24.50;1.00;;;;;;5114848;28;20036;-56
2022/08/16 05:31:11;;;;;;;6.30;5.43;;;24.60;1.00;;;;;;5114193;28;20050;-53
2022/08/16 05:33:37;;;;;;;5.88;5.35;;;24.60;1.00;;;;;;5082618;28;20505;-53
2022/08/16 05:36:03;;;;;;;6.60;6.00;;;24.60;1.00;;;;;;5113902;28;20118;-54
2022/08/16 05:38:29;;;;;;;6.53;5.80;;;24.50;1.00;;;;;;5114816;28;20074;-51
2022/08/16 05:40:58;;;;;;;6.97;6.35;;;24.40;1.00;;;;;;5113805;28;20047;-55
2022/08/16 05:43:24;;;;;;;7.35;5.75;;;24.40;1.00;;;;;;5114675;28;20069;-53
2022/08/16 05:45:51;;;;;;;9.63;5.63;;;24.50;1.00;;;;;;5111223;28;20497;-51
2022/08/16 05:48:16;;;;;;;7.07;5.68;;;24.60;1.00;;;;;;5102922;28;20450;-56
2022/08/16 05:50:42;;;;;;;7.20;5.25;;;24.60;1.00;;;;;;5113325;28;20053;-53
2022/08/16 05:53:08;;;;;;;7.05;6.20;;;24.70;1.00;;;;;;5114478;28;20361;-52
2022/08/16 05:55:34;;;;;;;7.13;6.43;;;24.70;1.00;;;;;;5114022;28;20384;-56
2022/08/16 05:57:59;;;;;;;6.35;5.80;;;24.60;1.00;;;;;;5114135;28;20027;-55
2022/08/16 06:00:25;;;;;;;6.45;5.85;;;24.60;1.00;;;;;;5113507;28;20552;-50
2022/08/16 06:02:51;;;;;;;7.13;6.43;;;24.60;1.00;;;;;;5113866;28;20032;-55
2022/08/16 06:05:17;;;;;;;8.45;5.90;;;24.60;1.00;;;;;;5114395;28;20197;-52
2022/08/16 06:07:43;;;;;;;6.07;5.43;;;24.70;1.00;;;;;;5113533;28;20042;-54
2022/08/16 06:10:10;;;;;;;6.65;5.88;;;24.70;1.00;;;;;;5095794;28;20545;-53
2022/08/16 06:12:37;;;;;;;7.07;6.45;;;24.70;1.00;;;;;;5095563;28;20119;-55
2022/08/16 06:15:08;;;;;;;7.43;6.35;;;24.80;1.00;;;;;;5114076;28;20024;-54
2022/08/16 06:17:34;;;;;;;7.25;6.03;;;24.90;1.00;;;;;;5113065;28;20076;-54
2022/08/16 06:20:00;;;;;;;7.63;6.22;;;24.80;1.00;;;;;;5113844;28;20081;-54
2022/08/16 06:22:26;;;;;;;7.45;6.78;;;25.00;1.00;;;;;;5113205;28;20020;-54
2022/08/16 06:24:51;;;;;;;7.13;6.43;;;24.80;1.00;;;;;;5113057;28;20100;-52
2022/08/16 06:27:17;;;;;;;7.72;6.72;;;24.80;1.00;;;;;;5094430;28;20038;-54
2022/08/16 06:29:43;;;;;;;8.25;7.22;;;24.90;1.00;;;;;;5113831;28;20035;-55
2022/08/16 06:32:10;;;;;;;8.10;6.90;;;24.80;1.00;;;;;;5113031;28;20038;-53
2022/08/16 06:34:36;;;;;;;7.45;6.75;;;24.90;1.00;;;;;;5113724;28;20119;-52
2022/08/16 06:37:02;;;;;;;8.13;6.90;;;24.80;1.00;;;;;;5112885;28;20123;-53
2022/08/16 06:39:28;;;;;;;7.82;6.68;;;24.80;1.00;;;;;;5113786;28;20042;-56
2022/08/16 06:41:54;;;;;;;9.45;7.35;;;24.80;1.00;;;;;;5095356;28;20020;-52
2022/08/16 06:44:19;;;;;;;8.82;8.02;;;24.90;1.00;;;;;;5112004;28;20051;-55
2022/08/16 06:46:45;;;;;;;10.18;7.40;;;24.90;1.00;;;;;;5113678;28;20030;-54
2022/08/16 06:49:11;;;;;;;8.43;7.32;;;24.80;1.00;;;;;;5110566;28;20093;-51
2022/08/16 06:51:38;;;;;;;9.27;7.88;;;24.90;1.00;;;;;;5112515;28;20489;-55
2022/08/16 06:54:05;;;;;;;7.45;6.75;;;25.00;1.00;;;;;;5094689;28;20362;-54
2022/08/16 06:56:31;;;;;;;7.35;6.63;;;25.00;1.00;;;;;;5112455;28;20429;-51
2022/08/16 06:58:57;;;;;;;9.13;7.00;;;25.10;1.00;;;;;;5112359;28;20020;-55
2022/08/16 07:01:23;;;;;;;7.45;6.75;;;25.00;1.00;;;;;;5113163;28;20023;-54
2022/08/16 07:03:50;;;;;;;7.95;6.75;;;25.10;1.00;;;;;;5110910;28;20537;-55
2022/08/16 07:06:18;;;;;;;7.93;7.05;;;25.20;1.00;;;;;;5113070;28;20077;-54
2022/08/16 07:08:45;;;;;;;7.80;6.07;;;25.30;1.00;;;;;;5112504;27;20039;-57
2022/08/16 07:11:11;;;;;;;8.48;6.90;;;25.40;1.00;;;;;;5113102;28;20526;-53
2022/08/16 07:13:38;;;;;;;9.82;6.80;;;25.40;1.00;;;;;;5111159;28;20119;-54
2022/08/16 07:16:05;;;;;;;8.13;7.28;;;25.40;1.00;;;;;;5112734;28;20469;-57
2022/08/16 07:18:31;;;;;;;10.77;7.13;;;25.40;1.00;;;;;;5111249;28;20024;-54
2022/08/16 07:20:57;;;;;;;12.52;7.45;;;25.40;1.00;;;;;;5112686;28;20043;-55
2022/08/16 07:23:24;;;;;;;11.25;6.57;;;25.40;1.00;;;;;;5112879;28;20106;-56
2022/08/16 07:25:50;;;;;;;7.72;6.95;;;25.40;1.00;;;;;;5111237;28;20051;-53
2022/08/16 07:28:17;;;;;;;8.07;7.07;;;25.40;1.00;;;;;;5112769;28;20114;-57
2022/08/16 07:30:44;;;;;;;7.97;6.68;;;25.40;1.00;;;;;;5112172;28;20055;-56
2022/08/16 07:33:10;;;;;;;8.38;7.20;;;25.40;1.00;;;;;;5112555;28;20035;-55
2022/08/16 07:35:37;;;;;;;7.95;7.22;;;25.50;1.00;;;;;;5111903;28;20034;-53
2022/08/16 07:38:04;;;;;;;11.05;7.90;;;25.50;1.00;;;;;;5112497;28;20024;-54
2022/08/16 07:40:30;;;;;;;6.78;6.18;;;25.50;1.00;;;;;;5111909;28;20035;-54
2022/08/16 07:42:56;;;;;;;9.18;7.20;;;25.50;1.00;;;;;;5093946;28;20024;-51
2022/08/16 07:45:22;;;;;;;7.93;7.22;;;25.50;1.00;;;;;;5093489;28;20149;-57
2022/08/16 07:47:48;;;;;;;7.45;6.85;;;25.60;1.00;;;;;;5112223;28;20075;-56
2022/08/16 07:50:15;;;;;;;7.68;6.82;;;25.60;1.00;;;;;;5111750;28;20020;-54
2022/08/16 07:52:42;;;;;;;8.43;6.97;;;25.60;1.00;;;;;;5110775;28;20036;-53
2022/08/16 07:55:10;;;;;;;9.02;7.25;;;25.60;1.00;;;;;;5111714;28;20031;-55
2022/08/16 07:57:36;;;;;;;9.38;7.47;;;25.70;1.00;;;;;;5112383;28;20020;-53
2022/08/16 08:00:02;;;;;;;10.15;7.60;;;25.80;1.00;;;;;;5108396;28;20046;-56
2022/08/16 08:02:28;;;;;;;8.90;7.10;;;25.90;1.00;;;;;;5099295;28;20034;-57
2022/08/16 08:04:55;;;;;;;8.65;7.82;;;25.90;1.00;;;;;;5095373;28;20030;-56
2022/08/16 08:07:21;;;;;;;8.68;7.68;;;25.90;1.00;;;;;;5103917;28;20118;-55
2022/08/16 08:09:47;;;;;;;8.40;7.60;;;25.90;1.00;;;;;;5111039;28;20027;-56
2022/08/16 08:12:13;;;;;;;8.57;7.68;;;25.90;1.00;;;;;;5112218;28;20019;-52
2022/08/16 08:14:38;;;;;;;10.80;8.65;;;25.90;1.00;;;;;;5099454;28;20028;-53
2022/08/16 08:17:06;;;;;;;9.25;8.32;;;25.80;1.00;;;;;;5092659;28;20028;-52
2022/08/16 08:19:33;;;;;;;11.48;7.82;;;25.80;1.00;;;;;;5111180;28;20100;-56
2022/08/16 08:21:59;;;;;;;11.57;8.23;;;25.90;1.00;;;;;;5112077;28;20419;-53
2022/08/16 08:24:26;;;;;;;8.88;7.85;;;26.00;1.00;;;;;;5110860;28;20500;-54
2022/08/16 08:26:53;;;;;;;11.13;7.78;;;26.10;1.00;;;;;;5111835;28;20020;-53
2022/08/16 08:29:19;;;;;;;9.25;8.13;;;26.10;1.00;;;;;;5111387;28;20035;-52
2022/08/16 08:31:44;;;;;;;8.90;8.00;;;26.10;1.00;;;;;;5111857;28;20354;-53
2022/08/16 08:34:10;;;;;;;8.85;7.63;;;26.10;1.00;;;;;;5109038;28;20086;-56
2022/08/16 08:36:36;;;;;;;8.27;7.47;;;26.20;1.00;;;;;;5109464;28;20022;-53
2022/08/16 08:39:04;;;;;;;8.55;7.72;;;26.20;1.00;;;;;;5110521;28;20319;-54
2022/08/16 08:41:30;;;;;;;9.35;8.07;;;26.20;1.00;;;;;;5111796;28;20015;-53
2022/08/16 08:43:56;;;;;;;10.18;9.10;;;26.30;1.00;;;;;;5111415;28;20140;-55
2022/08/16 08:46:24;;;;;;;9.10;8.20;;;26.30;1.00;;;;;;5111542;28;20024;-53
2022/08/16 08:48:51;;;;;;;7.90;7.05;;;26.30;1.00;;;;;;5097350;28;20036;-56
2022/08/16 08:51:17;;;;;;;7.07;6.47;;;26.40;1.00;;;;;;5111273;28;20024;-52
2022/08/16 08:53:44;;;;;;;7.63;6.93;;;26.40;1.00;;;;;;5111656;28;20130;-53
2022/08/16 08:56:11;;;;;;;7.35;6.72;;;26.50;1.00;;;;;;5111001;28;20016;-55
2022/08/16 08:58:37;;;;;;;9.38;7.95;;;26.60;1.00;;;;;;5111788;28;20028;-57
2022/08/16 09:01:05;;;;;;;9.88;8.00;;;26.60;1.00;;;;;;5102634;28;20084;-55
2022/08/16 09:03:32;;;;;;;7.47;6.43;;;26.60;1.00;;;;;;5109910;28;20044;-55
2022/08/16 09:05:59;;;;;;;8.50;7.40;;;26.60;1.00;;;;;;5111656;28;20027;-52
2022/08/16 09:08:25;;;;;;;8.40;7.25;;;26.70;1.00;;;;;;5110861;28;20032;-55
2022/08/16 09:10:54;;;;;;;7.97;7.18;;;26.70;1.00;;;;;;5111471;28;20069;-57
2022/08/16 09:13:21;;;;;;;8.80;7.18;;;26.80;1.00;;;;;;5110388;28;20046;-56
2022/08/16 09:15:48;;;;;;;8.40;7.63;;;26.90;1.00;;;;;;5109959;28;20035;-54
2022/08/16 09:18:16;;;;;;;8.35;7.53;;;26.90;1.00;;;;;;5109537;28;20102;-57
2022/08/16 09:20:43;;;;;;;7.55;6.85;;;26.90;1.00;;;;;;5112801;28;20035;-55
2022/08/16 09:23:09;;;;;;;7.75;6.38;;;26.90;1.00;;;;;;5114431;28;20019;-56
2022/08/16 09:25:35;;;;;;;8.88;7.63;;;26.90;1.00;;;;;;5096805;28;20110;-55
2022/08/16 09:28:02;;;;;;;7.28;6.60;;;27.00;1.00;;;;;;5114284;28;20031;-54
2022/08/16 09:30:28;;;;;;;8.45;5.88;;;27.10;1.00;;;;;;5115213;28;20402;-56
2022/08/16 09:32:54;;;;;;;6.65;5.97;;;27.10;1.00;;;;;;5114267;28;20384;-53
2022/08/16 09:35:21;;;;;;;9.80;6.57;;;27.20;1.00;;;;;;5114860;28;20020;-51
2022/08/16 09:37:47;;;;;;;6.97;6.07;;;27.30;1.00;;;;;;5113958;28;20357;-54
2022/08/16 09:40:12;;;;;;;5.57;5.18;;;27.30;1.00;;;;;;5114767;28;20478;-54
2022/08/16 09:42:39;;;;;;;7.13;5.60;;;27.30;1.00;;;;;;5112956;28;20044;-50
2022/08/16 09:45:07;;;;;;;7.78;7.03;;;27.30;1.00;;;;;;5114682;28;20109;-53
2022/08/16 09:47:39;;;;;;;10.07;6.40;;;27.30;1.00;;;;;;5113637;28;20432;-56
2022/08/16 09:50:07;;;;;;;5.55;5.05;;;27.40;1.00;;;;;;5114672;28;20023;-56
2022/08/16 09:52:34;;;;;;;6.22;5.60;;;27.40;1.00;;;;;;5113605;28;20031;-55
2022/08/16 09:55:32;;;;;;;6.68;5.63;;;27.50;1.00;;;;;;5114690;28;20012;-55
2022/08/16 09:57:58;;;;;;;6.60;6.00;;;27.60;1.00;;;;;;5112173;28;20061;-52
2022/08/16 10:00:25;;;;;;;5.85;4.97;;;27.60;1.00;;;;;;5114408;28;20027;-56
2022/08/16 10:02:54;;;;;;;6.78;5.70;;;27.70;1.00;;;;;;5094993;28;20020;-55
2022/08/16 10:05:20;;;;;;;5.63;5.13;;;27.70;1.00;;;;;;5114466;28;20063;-53
2022/08/16 10:07:50;;;;;;;7.57;5.20;;;27.70;1.00;;;;;;5089644;28;20046;-55
2022/08/16 10:10:21;;;;;;;7.63;6.25;;;27.80;1.00;;;;;;5114374;28;20405;-55
2022/08/16 10:15:33;;;;;;;6.70;6.03;;;27.80;1.00;;;;;;5114598;28;20072;-55
2022/08/16 10:17:59;;;;;;;4.70;4.10;;;27.90;1.00;;;;;;5113161;28;20369;-51
2022/08/16 10:20:26;;;;;;;5.43;4.65;;;28.00;1.00;;;;;;5114174;28;20027;-54
2022/08/16 10:22:52;;;;;;;6.07;4.72;;;28.00;1.00;;;;;;5112876;28;20074;-54
2022/08/16 10:25:18;;;;;;;9.27;5.50;;;28.00;1.00;;;;;;5114246;28;20032;-56
2022/08/16 10:27:46;;;;;;;5.53;4.78;;;28.10;1.00;;;;;;5112815;28;20080;-55
2022/08/16 10:30:14;;;;;;;5.15;4.70;;;28.20;1.00;;;;;;5114233;28;20027;-57
2022/08/16 10:32:40;;;;;;;6.93;4.40;;;28.20;1.00;;;;;;5111664;28;20391;-55
2022/08/16 10:35:06;;;;;;;6.22;3.80;;;28.30;1.00;;;;;;5114006;28;20028;-56
2022/08/16 10:37:31;;;;;;;9.35;4.07;;;28.30;1.00;;;;;;5112808;28;20027;-55
2022/08/16 10:39:57;;;;;;;6.40;3.72;;;28.40;1.00;;;;;;5099025;28;20080;-56
2022/08/16 10:42:32;;;;;;;5.60;3.58;;;28.60;1.00;;;;;;5108519;28;20027;-54
2022/08/16 10:44:57;;;;;;;3.88;3.50;;;28.50;1.00;;;;;;5094133;28;20481;-56
2022/08/16 10:47:24;;;;;;;6.22;3.67;;;28.60;1.00;;;;;;5112237;28;20068;-56
2022/08/16 10:49:50;;;;;;;3.60;3.30;;;28.80;1.00;;;;;;5113048;28;20023;-56
2022/08/16 10:52:16;;;;;;;7.03;3.35;;;28.70;1.00;;;;;;5112124;28;20043;-54
2022/08/16 10:54:41;;;;;;;4.15;3.22;;;28.80;1.00;;;;;;5113156;28;20050;-56
2022/08/16 10:57:07;;;;;;;4.75;4.15;;;28.80;1.00;;;;;;5112006;28;20145;-55
2022/08/16 10:59:34;;;;;;;4.30;3.90;;;28.90;1.00;;;;;;5113245;28;20072;-56
2022/08/16 11:02:00;;;;;;;5.68;4.25;;;28.90;1.00;;;;;;5112416;28;20032;-56
2022/08/16 11:04:26;;;;;;;4.35;3.35;;;29.00;1.00;;;;;;5113437;28;20012;-56
2022/08/16 11:06:52;;;;;;;4.03;3.60;;;29.10;1.00;;;;;;5113131;28;20023;-55
2022/08/16 11:09:18;;;;;;;4.30;3.92;;;29.20;1.00;;;;;;5101679;28;20082;-53
2022/08/16 11:11:44;;;;;;;4.28;3.78;;;29.30;1.00;;;;;;5113407;28;20024;-56
2022/08/16 11:14:11;;;;;;;6.22;3.75;;;29.30;1.00;;;;;;5110046;28;20488;-55
2022/08/16 11:16:36;;;;;;;7.05;4.20;;;29.30;1.00;;;;;;5111886;28;20016;-56
2022/08/16 11:19:03;;;;;;;5.63;4.25;;;29.30;1.00;;;;;;5109199;28;20126;-57
2022/08/16 11:21:29;;;;;;;5.43;3.78;;;29.40;1.00;;;;;;5109627;28;20190;-53
2022/08/16 11:23:55;;;;;;;6.07;4.15;;;29.50;1.00;;;;;;5075807;28;20592;-55
2022/08/16 11:26:21;;;;;;;5.13;3.78;;;29.60;1.00;;;;;;5091854;28;20115;-57
2022/08/16 11:28:49;;;;;;;5.03;3.60;;;29.70;1.00;;;;;;5111767;28;20088;-56
2022/08/16 11:31:15;;;;;;;3.92;3.58;;;29.70;1.00;;;;;;5112695;28;20051;-57
2022/08/16 11:33:41;;;;;;;6.03;3.88;;;29.90;1.00;;;;;;5112200;28;20078;-58
2022/08/16 11:36:07;;;;;;;4.15;3.72;;;30.10;1.00;;;;;;5112092;28;20409;-58
2022/08/16 11:38:32;;;;;;;4.75;4.32;;;30.10;1.00;;;;;;5112004;28;20076;-57
2022/08/16 11:40:59;;;;;;;7.40;4.45;;;30.10;1.00;;;;;;5112617;28;20435;-58
2022/08/16 11:43:30;;;;;;;5.10;4.57;;;30.40;1.00;;;;;;5110708;28;20024;-57
2022/08/16 11:45:57;;;;;;;5.28;3.30;;;30.50;1.00;;;;;;5112995;28;20110;-57
2022/08/16 11:48:26;;;;;;;8.05;4.53;;;30.70;1.00;;;;;;5111700;28;20039;-58
2022/08/16 11:50:52;;;;;;;4.30;3.90;;;30.50;1.00;;;;;;5112508;28;20152;-55
2022/08/16 11:53:19;;;;;;;5.40;4.20;;;30.50;1.00;;;;;;5111443;28;20076;-57
2022/08/16 11:55:46;;;;;;;5.30;4.80;;;30.90;1.00;;;;;;5112534;28;20019;-57
2022/08/16 11:58:11;;;;;;;6.38;3.90;;;31.00;1.00;;;;;;5105741;28;20039;-55
2022/08/16 12:00:40;;;;;;;4.80;4.40;;;32.00;1.00;;;;;;5110553;28;20393;-55
2022/08/16 12:03:05;;;;;;;6.75;4.60;;;34.00;1.00;;;;;;5111656;28;20028;-57
2022/08/16 12:05:31;;;;;;;5.03;4.50;;;32.80;1.00;;;;;;5112229;28;20477;-57
2022/08/16 12:07:57;;;;;;;6.50;4.60;;;33.30;1.00;;;;;;5111372;28;20041;-57
2022/08/16 12:10:25;;;;;;;6.20;4.70;;;33.70;1.00;;;;;;5080602;28;20401;-57
2022/08/16 12:12:51;;;;;;;4.93;4.53;;;35.40;1.00;;;;;;5110615;28;20107;-52
2022/08/16 12:15:18;;;;;;;5.72;4.20;;;38.20;1.00;;;;;;5112300;28;20557;-57
2022/08/16 12:17:43;;;;;;;6.57;5.07;;;39.10;1.00;;;;;;5111224;28;20385;-57
2022/08/16 12:20:14;;;;;;;6.90;5.40;;;39.50;1.00;;;;;;5112003;28;20065;-58
2022/08/16 12:22:40;;;;;;;7.18;4.90;;;41.70;1.00;;;;;;5109870;28;20107;-57
2022/08/16 12:25:10;;;;;;;6.28;5.38;;;43.70;1.00;;;;;;5112087;28;20043;-59
2022/08/16 12:27:36;;;;;;;6.30;5.72;;;44.50;1.00;;;;;;5110971;28;20024;-58
2022/08/16 12:30:03;;;;;;;9.90;5.43;;;44.90;1.00;;;;;;5112000;28;20157;-58
2022/08/16 12:32:29;;;;;;;6.10;5.60;;;44.60;1.00;;;;;;5111975;28;20027;-57
2022/08/16 12:34:54;;;;;;;7.00;5.93;;;42.00;1.00;;;;;;5110925;28;20038;-58
2022/08/16 12:37:21;;;;;;;6.88;6.13;;;40.00;1.00;;;;;;5112280;28;20462;-58
2022/08/16 12:39:47;;;;;;;5.88;5.47;;;39.10;1.00;;;;;;5111625;28;20031;-58
2022/08/16 12:42:13;;;;;;;6.00;5.60;;;38.70;1.00;;;;;;5111994;28;20355;-58
2022/08/16 12:44:40;;;;;;;6.90;5.80;;;38.60;1.00;;;;;;5111127;28;20047;-59
2022/08/16 12:49:52;;;;;;;6.43;5.82;;;40.40;1.00;;;;;;5110175;28;20059;-58
2022/08/16 12:52:19;;;;;;;6.90;6.25;;;38.50;1.00;;;;;;5112160;28;20016;-58
2022/08/16 12:54:44;;;;;;;6.75;6.25;;;38.00;1.00;;;;;;5111364;28;20361;-58
2022/08/16 12:57:10;;;;;;;7.13;6.63;;;39.40;1.00;;;;;;5115884;28;20119;-58
2022/08/16 12:59:36;;;;;;;6.20;5.80;;;41.20;1.00;;;;;;5114698;28;20024;-57
2022/08/16 13:02:04;;;;;;;6.00;5.57;;;43.80;1.00;;;;;;5114237;28;20062;-58